WAT3911 PKMJ-PHTO
Flight info
| Callsign | WAT3911 |
|---|---|
| Flight time | N/A |
| Altitude | 41000 |
| Route | MAJ R584 MCFLY TIGAH V16 OKALA V22 ITO |
| Aircraft | C700/M-SBDGHM1RWXY/LB2 |
Departure
| Time | 2026-05-01 13:22 |
|---|---|
| Airport | Marshall Islands International Airport (PKMJ) |
Arrival
| Time | N/A |
|---|---|
| Airport | Hilo International Airport (PHTO) |
| Time | Latitude | Longitude | Altitude | Speed | Heading |
|---|---|---|---|---|---|
| 2026-05-01 13:13 | 7.06791 | 171.28142 | 1 ft | 0 kts | 70° |
| 2026-05-01 13:19 | 7.06792 | 171.28144 | 1 ft | 3 kts | 72° |
| 2026-05-01 13:19 | 7.06714 | 171.28015 | -2 ft | 29 kts | 256° |
| 2026-05-01 13:20 | 7.06654 | 171.27775 | -1 ft | 41 kts | 256° |
| 2026-05-01 13:20 | 7.06577 | 171.27466 | -2 ft | 46 kts | 256° |
| 2026-05-01 13:20 | 7.06497 | 171.27150 | -1 ft | 48 kts | 256° |
| 2026-05-01 13:21 | 7.06351 | 171.26566 | -5 ft | 38 kts | 256° |
| 2026-05-01 13:21 | 7.06292 | 171.26316 | -5 ft | 30 kts | 257° |
| 2026-05-01 13:21 | 7.06278 | 171.26258 | -5 ft | 2 kts | 197° |
| 2026-05-01 13:21 | 7.06272 | 171.26265 | -5 ft | 1 kts | 115° |
| 2026-05-01 13:22 | 7.06276 | 171.26293 | -5 ft | 11 kts | 73° |
| 2026-05-01 13:22 | 7.06364 | 171.26631 | -4 ft | 93 kts | 77° |
| 2026-05-01 13:22 | 7.06589 | 171.27529 | 33 ft | 167 kts | 76° |
| 2026-05-01 13:22 | 7.06894 | 171.28771 | 689 ft | 197 kts | 76° |
| 2026-05-01 13:23 | 7.07234 | 171.30165 | 1804 ft | 206 kts | 76° |
| 2026-05-01 13:23 | 7.07578 | 171.31573 | 3010 ft | 215 kts | 75° |
| 2026-05-01 13:23 | 7.07958 | 171.33120 | 3948 ft | 241 kts | 74° |
| 2026-05-01 13:23 | 7.08481 | 171.34789 | 4957 ft | 257 kts | 64° |
| 2026-05-01 13:24 | 7.09388 | 171.36353 | 6368 ft | 261 kts | 58° |
| 2026-05-01 13:24 | 7.10467 | 171.37867 | 7632 ft | 270 kts | 54° |
| 2026-05-01 13:24 | 7.11635 | 171.39385 | 8855 ft | 278 kts | 54° |
| 2026-05-01 13:25 | 7.14105 | 171.42556 | 10876 ft | 308 kts | 53° |
| 2026-05-01 13:25 | 7.15451 | 171.44299 | 11956 ft | 317 kts | 53° |
| 2026-05-01 13:25 | 7.16806 | 171.46071 | 13188 ft | 322 kts | 53° |
| 2026-05-01 13:25 | 7.18177 | 171.47881 | 14319 ft | 329 kts | 53° |
| 2026-05-01 13:26 | 7.19559 | 171.49743 | 15379 ft | 335 kts | 55° |
| 2026-05-01 13:26 | 7.20787 | 171.51759 | 16427 ft | 341 kts | 60° |
| 2026-05-01 13:26 | 7.21896 | 171.53891 | 17422 ft | 347 kts | 65° |
| 2026-05-01 13:26 | 7.22831 | 171.56156 | 18356 ft | 354 kts | 67° |
| 2026-05-01 13:27 | 7.23832 | 171.58447 | 19284 ft | 359 kts | 63° |
| 2026-05-01 13:27 | 7.25074 | 171.60653 | 20185 ft | 365 kts | 58° |
| 2026-05-01 13:27 | 7.27668 | 171.65142 | 21863 ft | 376 kts | 62° |
| 2026-05-01 13:28 | 7.30193 | 171.69845 | 23418 ft | 386 kts | 60° |
| 2026-05-01 13:28 | 7.31509 | 171.72184 | 24145 ft | 391 kts | 60° |
| 2026-05-01 13:29 | 7.34168 | 171.77040 | 25517 ft | 402 kts | 61° |
| 2026-05-01 13:29 | 7.36916 | 171.82027 | 26803 ft | 411 kts | 60° |
| 2026-05-01 13:30 | 7.42603 | 171.92328 | 29116 ft | 430 kts | 59° |
| 2026-05-01 13:31 | 7.45543 | 171.97641 | 30149 ft | 438 kts | 59° |
| 2026-05-01 13:31 | 7.50063 | 172.05798 | 31681 ft | 449 kts | 58° |
| 2026-05-01 13:32 | 7.53115 | 172.11298 | 32621 ft | 455 kts | 59° |
| 2026-05-01 13:33 | 7.57807 | 172.19742 | 33895 ft | 464 kts | 59° |
| 2026-05-01 13:33 | 7.60986 | 172.25453 | 34650 ft | 470 kts | 59° |
| 2026-05-01 13:34 | 7.64212 | 172.31248 | 35321 ft | 478 kts | 59° |
| 2026-05-01 13:34 | 7.67472 | 172.37100 | 36222 ft | 478 kts | 59° |
| 2026-05-01 13:35 | 7.70736 | 172.42959 | 37003 ft | 481 kts | 60° |
| 2026-05-01 13:35 | 7.72377 | 172.45904 | 37434 ft | 481 kts | 60° |
| 2026-05-01 13:35 | 7.75662 | 172.51800 | 38159 ft | 483 kts | 60° |
| 2026-05-01 13:36 | 7.77306 | 172.54751 | 38514 ft | 483 kts | 60° |
| 2026-05-01 13:36 | 7.78951 | 172.57704 | 38864 ft | 483 kts | 60° |
| 2026-05-01 13:36 | 7.82248 | 172.63625 | 39544 ft | 484 kts | 60° |
| 2026-05-01 13:37 | 7.83871 | 172.66542 | 39895 ft | 483 kts | 60° |
| 2026-05-01 13:37 | 7.85517 | 172.69498 | 40232 ft | 482 kts | 60° |
| 2026-05-01 13:37 | 7.87160 | 172.72449 | 40549 ft | 482 kts | 60° |
| 2026-05-01 13:37 | 7.88799 | 172.75393 | 40816 ft | 482 kts | 60° |
| 2026-05-01 13:38 | 7.93788 | 172.84352 | 40890 ft | 491 kts | 60° |
| 2026-05-01 13:39 | 7.97130 | 172.90356 | 40894 ft | 491 kts | 60° |
| 2026-05-01 13:39 | 8.00469 | 172.96353 | 40897 ft | 490 kts | 60° |
| 2026-05-01 13:40 | 8.03811 | 173.02355 | 40898 ft | 490 kts | 59° |
| 2026-05-01 13:40 | 8.07132 | 173.08323 | 40899 ft | 486 kts | 59° |
| 2026-05-01 13:41 | 8.10414 | 173.14223 | 40897 ft | 485 kts | 59° |
| 2026-05-01 13:41 | 8.13714 | 173.20155 | 40895 ft | 484 kts | 59° |
| 2026-05-01 13:42 | 8.17013 | 173.26085 | 40894 ft | 484 kts | 59° |
| 2026-05-01 13:42 | 8.20320 | 173.32031 | 40904 ft | 486 kts | 59° |
| 2026-05-01 13:43 | 8.23637 | 173.37996 | 40906 ft | 486 kts | 59° |
| 2026-05-01 13:43 | 8.26942 | 173.43940 | 40907 ft | 484 kts | 59° |
| 2026-05-01 13:44 | 8.30208 | 173.49813 | 40904 ft | 483 kts | 59° |
| 2026-05-01 13:44 | 8.33501 | 173.55737 | 40904 ft | 484 kts | 59° |
| 2026-05-01 13:45 | 8.36804 | 173.61678 | 40906 ft | 486 kts | 59° |
| 2026-05-01 13:45 | 8.40119 | 173.67640 | 40909 ft | 487 kts | 59° |
| 2026-05-01 13:46 | 8.43429 | 173.73594 | 40911 ft | 485 kts | 59° |
| 2026-05-01 13:46 | 8.46726 | 173.79527 | 40910 ft | 483 kts | 59° |
| 2026-05-01 13:47 | 8.49994 | 173.85409 | 40906 ft | 482 kts | 59° |
| 2026-05-01 13:47 | 8.53279 | 173.91320 | 40906 ft | 483 kts | 59° |
| 2026-05-01 13:48 | 8.56580 | 173.97262 | 40906 ft | 484 kts | 59° |
| 2026-05-01 13:48 | 8.59885 | 174.03211 | 40908 ft | 486 kts | 59° |
| 2026-05-01 13:49 | 8.63198 | 174.09173 | 40909 ft | 487 kts | 59° |
| 2026-05-01 13:49 | 8.66513 | 174.15138 | 40911 ft | 486 kts | 59° |
| 2026-05-01 13:50 | 8.69818 | 174.21087 | 40910 ft | 486 kts | 59° |
| 2026-05-01 13:50 | 8.73126 | 174.27043 | 40908 ft | 485 kts | 59° |
| 2026-05-01 13:51 | 8.76413 | 174.32961 | 40908 ft | 487 kts | 59° |
| 2026-05-01 13:51 | 8.79738 | 174.38946 | 40909 ft | 488 kts | 59° |
| 2026-05-01 13:52 | 8.83070 | 174.44945 | 40912 ft | 490 kts | 59° |
| 2026-05-01 13:52 | 8.86400 | 174.50966 | 40912 ft | 489 kts | 59° |
| 2026-05-01 13:53 | 8.89569 | 174.57058 | 40911 ft | 488 kts | 60° |
| 2026-05-01 13:53 | 8.94390 | 174.66089 | 40910 ft | 490 kts | 60° |
| 2026-05-01 13:54 | 8.97609 | 174.72185 | 40911 ft | 492 kts | 59° |
| 2026-05-01 13:54 | 9.00843 | 174.78279 | 40914 ft | 491 kts | 60° |
| 2026-05-01 13:55 | 9.04070 | 174.84375 | 40912 ft | 491 kts | 59° |
| 2026-05-01 13:55 | 9.07299 | 174.90475 | 40913 ft | 492 kts | 59° |
| 2026-05-01 13:56 | 9.10534 | 174.96593 | 40914 ft | 493 kts | 59° |
| 2026-05-01 13:56 | 9.13771 | 175.02715 | 40915 ft | 494 kts | 59° |
| 2026-05-01 13:57 | 9.16465 | 175.07810 | 40916 ft | 495 kts | 59° |
| 2026-05-01 13:57 | 9.20233 | 175.14944 | 40916 ft | 493 kts | 59° |
| 2026-05-01 13:58 | 9.23464 | 175.21063 | 40914 ft | 491 kts | 59° |
| 2026-05-01 13:58 | 9.26687 | 175.27171 | 40912 ft | 493 kts | 59° |
| 2026-05-01 13:59 | 9.29924 | 175.33309 | 40913 ft | 495 kts | 59° |
| 2026-05-01 13:59 | 9.33169 | 175.39466 | 40916 ft | 495 kts | 59° |
| 2026-05-01 14:00 | 9.36409 | 175.45615 | 40914 ft | 495 kts | 59° |
| 2026-05-01 14:00 | 9.39654 | 175.51775 | 40915 ft | 495 kts | 59° |
| 2026-05-01 14:01 | 9.42348 | 175.56894 | 40915 ft | 496 kts | 59° |
| 2026-05-01 14:01 | 9.46136 | 175.64092 | 40916 ft | 498 kts | 59° |
| 2026-05-01 14:02 | 9.49390 | 175.70284 | 40917 ft | 497 kts | 59° |
| 2026-05-01 14:02 | 9.52110 | 175.75459 | 40915 ft | 496 kts | 59° |
| 2026-05-01 14:03 | 9.55332 | 175.81591 | 40913 ft | 496 kts | 59° |
| 2026-05-01 14:03 | 9.58579 | 175.87776 | 40915 ft | 498 kts | 59° |
| 2026-05-01 14:04 | 9.61839 | 175.93988 | 40917 ft | 500 kts | 59° |
| 2026-05-01 14:04 | 9.65104 | 176.00217 | 40917 ft | 500 kts | 59° |
| 2026-05-01 14:05 | 9.68362 | 176.06431 | 40916 ft | 498 kts | 59° |
| 2026-05-01 14:05 | 9.71608 | 176.12628 | 40915 ft | 497 kts | 59° |
| 2026-05-01 14:06 | 9.74848 | 176.18813 | 40915 ft | 497 kts | 59° |
| 2026-05-01 14:06 | 9.78073 | 176.24975 | 40915 ft | 499 kts | 59° |
| 2026-05-01 14:07 | 9.81332 | 176.31206 | 40916 ft | 500 kts | 59° |
| 2026-05-01 14:08 | 9.86223 | 176.40565 | 40919 ft | 500 kts | 59° |
| 2026-05-01 14:08 | 9.89475 | 176.46789 | 40918 ft | 498 kts | 59° |
| 2026-05-01 14:09 | 9.92712 | 176.52992 | 40917 ft | 497 kts | 59° |
| 2026-05-01 14:09 | 9.95945 | 176.59187 | 40918 ft | 497 kts | 59° |
| 2026-05-01 14:10 | 9.99182 | 176.65395 | 40918 ft | 498 kts | 59° |
| 2026-05-01 14:10 | 10.02431 | 176.71629 | 40919 ft | 500 kts | 59° |
| 2026-05-01 14:11 | 10.05689 | 176.77884 | 40922 ft | 502 kts | 59° |
| 2026-05-01 14:11 | 10.10554 | 176.87230 | 40923 ft | 501 kts | 58° |
| 2026-05-01 14:12 | 10.13806 | 176.93483 | 40923 ft | 500 kts | 58° |
| 2026-05-01 14:12 | 10.17053 | 176.99727 | 40921 ft | 499 kts | 58° |
| 2026-05-01 14:13 | 10.20299 | 177.05975 | 40921 ft | 501 kts | 58° |
| 2026-05-01 14:13 | 10.23536 | 177.12207 | 40923 ft | 502 kts | 58° |
| 2026-05-01 14:14 | 10.26785 | 177.18468 | 40924 ft | 501 kts | 58° |
| 2026-05-01 14:14 | 10.30031 | 177.24727 | 40923 ft | 500 kts | 58° |
| 2026-05-01 14:15 | 10.33275 | 177.30986 | 40923 ft | 501 kts | 58° |
| 2026-05-01 14:15 | 10.36517 | 177.37244 | 40923 ft | 501 kts | 58° |
| 2026-05-01 14:16 | 10.39767 | 177.43518 | 40924 ft | 502 kts | 58° |
| 2026-05-01 14:16 | 10.43020 | 177.49803 | 40925 ft | 502 kts | 58° |
| 2026-05-01 14:17 | 10.46273 | 177.56094 | 40927 ft | 503 kts | 58° |
| 2026-05-01 14:17 | 10.49498 | 177.62336 | 40925 ft | 500 kts | 58° |
| 2026-05-01 14:18 | 10.52726 | 177.68585 | 40922 ft | 499 kts | 58° |
| 2026-05-01 14:18 | 10.55435 | 177.73830 | 40920 ft | 501 kts | 58° |
| 2026-05-01 14:19 | 10.59207 | 177.81142 | 40923 ft | 503 kts | 58° |
| 2026-05-01 14:19 | 10.62458 | 177.87446 | 40925 ft | 502 kts | 58° |
| 2026-05-01 14:20 | 10.67313 | 177.96870 | 40924 ft | 500 kts | 58° |
| 2026-05-01 14:21 | 10.70538 | 178.03133 | 40922 ft | 499 kts | 58° |
| 2026-05-01 14:21 | 10.73748 | 178.09367 | 40921 ft | 502 kts | 58° |
| 2026-05-01 14:22 | 10.78610 | 178.18827 | 40925 ft | 503 kts | 58° |
| 2026-05-01 14:22 | 10.81852 | 178.25136 | 40925 ft | 503 kts | 58° |
| 2026-05-01 14:23 | 10.85094 | 178.31448 | 40925 ft | 504 kts | 58° |
| 2026-05-01 14:23 | 10.88343 | 178.37780 | 40927 ft | 505 kts | 58° |
| 2026-05-01 14:24 | 10.91596 | 178.44122 | 40928 ft | 506 kts | 58° |
| 2026-05-01 14:24 | 10.94850 | 178.50472 | 40929 ft | 505 kts | 58° |
| 2026-05-01 14:25 | 10.98097 | 178.56813 | 40929 ft | 503 kts | 58° |
| 2026-05-01 14:25 | 11.01323 | 178.63115 | 40927 ft | 501 kts | 58° |
| 2026-05-01 14:26 | 11.06130 | 178.72511 | 40923 ft | 504 kts | 58° |
| 2026-05-01 14:27 | 11.09376 | 178.78864 | 40926 ft | 506 kts | 58° |
| 2026-05-01 14:27 | 11.12620 | 178.85217 | 40928 ft | 505 kts | 58° |
| 2026-05-01 14:28 | 11.17484 | 178.94745 | 40927 ft | 505 kts | 58° |
| 2026-05-01 14:28 | 11.20725 | 179.01100 | 40927 ft | 506 kts | 58° |
| 2026-05-01 14:29 | 11.23970 | 179.07468 | 40928 ft | 506 kts | 58° |
| 2026-05-01 14:30 | 11.30436 | 179.20166 | 40929 ft | 507 kts | 58° |
| 2026-05-01 14:31 | 11.35305 | 179.29742 | 40932 ft | 507 kts | 58° |
| 2026-05-01 14:31 | 11.38551 | 179.36129 | 40930 ft | 506 kts | 58° |
| 2026-05-01 14:32 | 11.41788 | 179.42501 | 40929 ft | 506 kts | 58° |
| 2026-05-01 14:32 | 11.45013 | 179.48858 | 40928 ft | 508 kts | 58° |
| 2026-05-01 14:33 | 11.48258 | 179.55256 | 40929 ft | 509 kts | 58° |
| 2026-05-01 14:33 | 11.51512 | 179.61679 | 40932 ft | 508 kts | 58° |
| 2026-05-01 14:34 | 11.54753 | 179.68077 | 40930 ft | 507 kts | 58° |
| 2026-05-01 14:34 | 11.57991 | 179.74473 | 40929 ft | 508 kts | 58° |
| 2026-05-01 14:35 | 11.61237 | 179.80890 | 40930 ft | 510 kts | 58° |
| 2026-05-01 14:35 | 11.64474 | 179.87292 | 40940 ft | 511 kts | 58° |
| 2026-05-01 14:36 | 11.67730 | 179.93739 | 40941 ft | 510 kts | 58° |
| 2026-05-01 14:36 | 11.70977 | -179.99830 | 40941 ft | 509 kts | 57° |
| 2026-05-01 14:37 | 11.74313 | -179.93472 | 40982 ft | 507 kts | 56° |
| 2026-05-01 14:37 | 11.77654 | -179.87121 | 41044 ft | 509 kts | 57° |
| 2026-05-01 14:38 | 11.80971 | -179.80779 | 41113 ft | 509 kts | 56° |
| 2026-05-01 14:38 | 11.84321 | -179.74396 | 41131 ft | 510 kts | 57° |
| 2026-05-01 14:39 | 11.87662 | -179.68009 | 41132 ft | 510 kts | 57° |
| 2026-05-01 14:39 | 11.91011 | -179.61612 | 41132 ft | 510 kts | 57° |
| 2026-05-01 14:40 | 11.94357 | -179.55211 | 41133 ft | 510 kts | 57° |
| 2026-05-01 14:40 | 11.97680 | -179.48856 | 41133 ft | 511 kts | 57° |
| 2026-05-01 14:41 | 12.01026 | -179.42445 | 41134 ft | 511 kts | 57° |
| 2026-05-01 14:41 | 12.04362 | -179.36052 | 41134 ft | 509 kts | 57° |
| 2026-05-01 14:42 | 12.07685 | -179.29681 | 41134 ft | 507 kts | 57° |
| 2026-05-01 14:42 | 12.10993 | -179.23332 | 41131 ft | 506 kts | 57° |
| 2026-05-01 14:43 | 12.14306 | -179.16970 | 41131 ft | 508 kts | 57° |
| 2026-05-01 14:43 | 12.17628 | -179.10586 | 41133 ft | 509 kts | 57° |
| 2026-05-01 14:44 | 12.20937 | -179.04223 | 41136 ft | 509 kts | 57° |
| 2026-05-01 14:44 | 12.25894 | -178.94683 | 41135 ft | 505 kts | 57° |
| 2026-05-01 14:45 | 12.30847 | -178.85141 | 41133 ft | 506 kts | 57° |
| 2026-05-01 14:46 | 12.34155 | -178.78763 | 41134 ft | 507 kts | 57° |
| 2026-05-01 14:46 | 12.39098 | -178.69224 | 41137 ft | 509 kts | 57° |
| 2026-05-01 14:47 | 12.42411 | -178.62822 | 41139 ft | 509 kts | 57° |